createdAt,value
2018-04-14T00:00:28.686Z,792.32
2018-04-14T00:00:32.781Z,792.35
2018-04-14T00:00:36.780Z,792.34
2018-04-14T00:00:41.093Z,792.34
2018-04-14T00:00:45.199Z,792.34
2018-04-14T00:00:49.526Z,792.32
2018-04-14T00:00:53.645Z,792.36
2018-04-14T00:00:57.969Z,792.34
2018-04-14T00:01:02.084Z,792.33
2018-04-14T00:01:06.303Z,792.31
2018-04-14T00:01:10.201Z,792.31
2018-04-14T00:01:14.413Z,792.31
2018-04-14T00:01:18.628Z,792.3
2018-04-14T00:01:22.945Z,792.3
2018-04-14T00:01:27.280Z,792.26
2018-04-14T00:01:31.287Z,792.28
2018-04-14T00:01:35.500Z,792.29
2018-04-14T00:01:39.710Z,792.31
2018-04-14T00:01:43.919Z,792.34
2018-04-14T00:01:47.909Z,792.31
2018-04-14T00:01:52.226Z,792.32
2018-04-14T00:01:56.322Z,792.32
2018-04-14T00:02:00.649Z,792.23
2018-04-14T00:02:04.918Z,792.29
2018-04-14T00:02:09.130Z,792.3
2018-04-14T00:02:13.342Z,792.27
2018-04-14T00:02:17.552Z,792.3
2018-04-14T00:02:21.660Z,792.31
2018-04-14T00:02:25.759Z,792.29
2018-04-14T00:02:29.865Z,792.27
2018-04-14T00:02:33.974Z,792.3
2018-04-14T00:02:38.302Z,792.26
2018-04-14T00:02:42.511Z,792.27
2018-04-14T00:02:46.833Z,792.31
2018-04-14T00:02:50.943Z,792.26
2018-04-14T00:02:55.048Z,792.28
2018-04-14T00:02:59.426Z,792.27
2018-04-14T00:03:03.527Z,792.26
2018-04-14T00:03:07.841Z,792.27
2018-04-14T00:03:12.053Z,792.28
2018-04-14T00:03:16.372Z,792.25
2018-04-14T00:03:20.469Z,792.26
2018-04-14T00:03:24.792Z,792.26
2018-04-14T00:03:29.131Z,792.27
2018-04-14T00:03:33.443Z,792.27
2018-04-14T00:03:37.648Z,792.25
2018-04-14T00:03:41.854Z,792.29
2018-04-14T00:03:46.063Z,792.27
2018-04-14T00:03:50.379Z,792.25
2018-04-14T00:03:54.594Z,792.25
2018-04-14T00:03:58.917Z,792.27
2018-04-14T00:04:02.908Z,792.28
2018-04-14T00:04:07.212Z,792.27
2018-04-14T00:04:11.420Z,792.21
2018-04-14T00:04:15.741Z,792.24
2018-04-14T00:04:19.841Z,792.23
2018-04-14T00:04:24.161Z,792.24
2018-04-14T00:04:28.264Z,792.25
2018-04-14T00:04:32.371Z,792.18
2018-04-14T00:04:36.471Z,792.22
2018-04-14T00:04:40.679Z,792.22
2018-04-14T00:04:44.780Z,792.28
2018-04-14T00:04:48.987Z,792.26
2018-04-14T00:04:53.192Z,792.24
2018-04-14T00:04:57.398Z,792.25
2018-04-14T00:05:01.714Z,792.23
2018-04-14T00:05:05.868Z,792.22
2018-04-14T00:05:10.190Z,792.26
2018-04-14T00:05:14.291Z,792.25
2018-04-14T00:05:18.548Z,792.27
2018-04-14T00:05:22.763Z,792.25
2018-04-14T00:05:27.087Z,792.25
2018-04-14T00:05:31.186Z,792.27
2018-04-14T00:05:35.508Z,792.24
2018-04-14T00:05:39.718Z,792.24
2018-04-14T00:05:43.929Z,792.22
2018-04-14T00:05:48.254Z,792.22
2018-04-14T00:05:52.574Z,792.29
2018-04-14T00:05:56.794Z,792.24
2018-04-14T00:06:00.791Z,792.21
2018-04-14T00:06:05.006Z,792.25
2018-04-14T00:06:09.000Z,792.22
2018-04-14T00:06:13.104Z,792.23
2018-04-14T00:06:17.423Z,792.24
2018-04-14T00:06:21.743Z,792.19
2018-04-14T00:06:25.849Z,792.19
2018-04-14T00:06:30.184Z,792.15
2018-04-14T00:06:34.502Z,792.2
2018-04-14T00:06:38.716Z,792.2
2018-04-14T00:06:42.931Z,792.22
2018-04-14T00:06:47.148Z,792.22
2018-04-14T00:06:51.359Z,792.15
2018-04-14T00:06:55.561Z,792.14
2018-04-14T00:06:59.760Z,792.18
2018-04-14T00:07:04.074Z,792.17
2018-04-14T00:07:07.960Z,792.14
2018-04-14T00:07:12.167Z,792.2
2018-04-14T00:07:16.374Z,792.18
2018-04-14T00:07:20.586Z,792.16
2018-04-14T00:07:24.577Z,792.16
2018-04-14T00:07:28.783Z,792.19
2018-04-14T00:07:33.109Z,792.17
2018-04-14T00:07:37.321Z,792.16
2018-04-14T00:07:41.532Z,792.16
2018-04-14T00:07:45.856Z,792.17
2018-04-14T00:07:49.955Z,792.17
2018-04-14T00:07:54.166Z,792.16
2018-04-14T00:07:58.160Z,792.16
2018-04-14T00:08:02.166Z,792.17
2018-04-14T00:08:06.482Z,792.15
2018-04-14T00:08:10.692Z,792.1
2018-04-14T00:08:14.900Z,792.09
2018-04-14T00:08:19.219Z,792.14
2018-04-14T00:08:23.441Z,792.14
2018-04-14T00:08:27.755Z,792.13
2018-04-14T00:08:31.964Z,792.14
2018-04-14T00:08:36.279Z,792.11
2018-04-14T00:08:40.492Z,792.1
2018-04-14T00:08:44.809Z,792.15
2018-04-14T00:08:49.127Z,792.14
2018-04-14T00:08:53.336Z,792.13
2018-04-14T00:08:57.544Z,792.11
2018-04-14T00:09:01.638Z,792.13
2018-04-14T00:09:05.739Z,792.1
2018-04-14T00:09:09.972Z,792.13
2018-04-14T00:09:14.179Z,792.09
2018-04-14T00:09:18.385Z,792.06
2018-04-14T00:09:22.590Z,792.09
2018-04-14T00:09:26.741Z,792.07
2018-04-14T00:09:30.948Z,792.09
2018-04-14T00:09:35.274Z,792.1
2018-04-14T00:09:39.482Z,792.1
2018-04-14T00:09:43.591Z,792.12
2018-04-14T00:09:47.846Z,792.03
2018-04-14T00:10:24.056Z,792.04
2018-04-14T00:10:28.374Z,792.05
2018-04-14T00:10:32.473Z,792.04
2018-04-14T00:10:36.692Z,792.07
2018-04-14T00:10:40.904Z,792.06
2018-04-14T00:10:45.008Z,792.04
2018-04-14T00:10:49.324Z,792.06
2018-04-14T00:10:53.658Z,792.03
2018-04-14T00:10:57.996Z,792.02
2018-04-14T00:11:02.316Z,792.04
2018-04-14T00:11:06.309Z,792.03
2018-04-14T00:11:10.518Z,792.09
2018-04-14T00:11:14.821Z,792.07
2018-04-14T00:11:19.276Z,792.06
2018-04-14T00:11:23.723Z,792.04
2018-04-14T00:11:28.039Z,792.03
2018-04-14T00:11:32.143Z,792.04
2018-04-14T00:11:36.374Z,792.04
2018-04-14T00:11:40.585Z,792.03
2018-04-14T00:11:44.796Z,792.04
2018-04-14T00:11:49.107Z,792.02
2018-04-14T00:11:53.422Z,792.03
2018-04-14T00:11:57.631Z,792.01
2018-04-14T00:12:01.841Z,791.99
2018-04-14T00:12:05.843Z,792.06
2018-04-14T00:12:10.160Z,791.99
2018-04-14T00:12:14.261Z,792.02
2018-04-14T00:12:18.583Z,792.01
2018-04-14T00:12:22.790Z,792.03
2018-04-14T00:12:26.897Z,792.04
2018-04-14T00:12:31.210Z,791.96
2018-04-14T00:12:35.528Z,791.97
2018-04-14T00:12:39.734Z,791.95
2018-04-14T00:12:44.055Z,791.97
2018-04-14T00:12:48.377Z,791.99
2018-04-14T00:12:52.490Z,792.05
2018-04-14T00:12:56.811Z,791.99
2018-04-14T00:13:00.803Z,792
2018-04-14T00:13:04.906Z,791.94
2018-04-14T00:13:09.006Z,791.99
2018-04-14T00:13:13.219Z,791.99
2018-04-14T00:13:17.225Z,792
2018-04-14T00:13:21.543Z,791.96
2018-04-14T00:13:25.747Z,791.99
2018-04-14T00:13:30.069Z,791.96
2018-04-14T00:13:34.276Z,791.96
2018-04-14T00:13:38.385Z,791.99
2018-04-14T00:13:42.590Z,791.97
2018-04-14T00:13:46.906Z,791.95
2018-04-14T00:13:51.134Z,791.91
2018-04-14T00:13:55.349Z,791.96
2018-04-14T00:13:59.675Z,791.96
2018-04-14T00:14:03.673Z,791.96
2018-04-14T00:14:07.879Z,791.96
2018-04-14T00:14:11.997Z,791.97
2018-04-14T00:14:16.312Z,791.97
2018-04-14T00:14:20.625Z,791.95
2018-04-14T00:14:24.942Z,791.98
2018-04-14T00:14:28.987Z,791.96
2018-04-14T00:14:33.099Z,791.95
2018-04-14T00:14:37.415Z,791.94
2018-04-14T00:14:41.408Z,791.98
2018-04-14T00:14:45.619Z,791.93
2018-04-14T00:14:49.827Z,791.94
2018-04-14T00:14:54.141Z,791.96
2018-04-14T00:14:58.353Z,791.95
2018-04-14T00:15:02.676Z,791.95
2018-04-14T00:15:06.901Z,791.96
2018-04-14T00:15:11.105Z,791.97
2018-04-14T00:15:15.315Z,791.97
2018-04-14T00:15:19.531Z,791.88
2018-04-14T00:15:23.631Z,791.94
2018-04-14T00:15:27.836Z,791.92
2018-04-14T00:15:32.150Z,791.93
2018-04-14T00:15:36.360Z,791.89
2018-04-14T00:15:40.690Z,791.87
2018-04-14T00:15:44.788Z,791.92
2018-04-14T00:15:49.102Z,791.9
2018-04-14T00:15:53.311Z,791.9
2018-04-14T00:15:57.645Z,791.89
2018-04-14T00:16:01.973Z,791.88
2018-04-14T00:16:06.192Z,791.89
2018-04-14T00:16:10.404Z,791.89
2018-04-14T00:16:14.717Z,791.85
2018-04-14T00:16:18.923Z,791.88
2018-04-14T00:16:23.025Z,791.85
2018-04-14T00:16:27.360Z,791.85
2018-04-14T00:16:31.464Z,791.86
2018-04-14T00:16:35.562Z,791.83
2018-04-14T00:16:39.557Z,791.81
2018-04-14T00:16:43.869Z,791.82
2018-04-14T00:16:48.190Z,791.84
2018-04-14T00:16:52.397Z,791.87
2018-04-14T00:16:56.601Z,791.87
2018-04-14T00:17:00.915Z,791.86
2018-04-14T00:17:04.958Z,791.83
2018-04-14T00:17:09.172Z,791.82
2018-04-14T00:17:13.489Z,791.85
2018-04-14T00:17:17.706Z,791.81
2018-04-14T00:17:21.803Z,791.84
2018-04-14T00:17:26.120Z,791.77
2018-04-14T00:17:30.325Z,791.78
2018-04-14T00:17:34.426Z,791.76
2018-04-14T00:17:38.654Z,791.83
2018-04-14T00:17:42.753Z,791.79
2018-04-14T00:17:47.074Z,791.78
2018-04-14T00:17:51.063Z,791.77
2018-04-14T00:17:55.270Z,791.79
2018-04-14T00:17:59.479Z,791.79
2018-04-14T00:18:03.744Z,791.78
2018-04-14T00:18:07.852Z,791.75
2018-04-14T00:18:11.954Z,791.74
2018-04-14T00:18:16.161Z,791.78
2018-04-14T00:18:20.488Z,791.77
2018-04-14T00:18:24.814Z,791.74
2018-04-14T00:18:29.131Z,791.72
2018-04-14T00:18:33.348Z,791.72
2018-04-14T00:18:37.446Z,791.72
2018-04-14T00:18:41.652Z,791.75
2018-04-14T00:18:45.758Z,791.71
2018-04-14T00:18:49.963Z,791.73
2018-04-14T00:18:54.278Z,791.75
2018-04-14T00:18:58.380Z,791.74
2018-04-14T00:19:02.745Z,791.74
2018-04-14T00:19:06.968Z,791.72
2018-04-14T00:19:11.077Z,791.71
2018-04-14T00:19:15.181Z,791.69
2018-04-14T00:19:19.396Z,791.72
2018-04-14T00:19:23.705Z,791.71
2018-04-14T00:19:27.806Z,791.66
2018-04-14T00:19:32.121Z,791.66
2018-04-14T00:19:36.226Z,791.65
2018-04-14T00:19:40.545Z,791.65
2018-04-14T00:19:44.750Z,791.65
2018-04-14T00:19:48.954Z,791.67
2018-04-14T00:19:53.051Z,791.63
2018-04-14T00:19:57.273Z,791.68
2018-04-14T00:20:01.594Z,791.69
2018-04-14T00:20:05.690Z,791.7
2018-04-14T00:20:09.791Z,791.67
2018-04-14T00:20:13.889Z,791.69
2018-04-14T00:20:18.102Z,791.65
2018-04-14T00:20:22.207Z,791.67
2018-04-14T00:20:26.411Z,791.65
2018-04-14T00:20:30.619Z,791.64
2018-04-14T00:20:34.947Z,791.63
2018-04-14T00:20:39.273Z,791.61
2018-04-14T00:20:43.482Z,791.63
2018-04-14T00:20:47.803Z,791.63
2018-04-14T00:20:52.016Z,791.59
2018-04-14T00:20:56.340Z,791.63
2018-04-14T00:21:00.656Z,791.58
2018-04-14T00:21:04.972Z,791.57
2018-04-14T00:21:09.186Z,791.58
2018-04-14T00:21:13.508Z,791.53
2018-04-14T00:21:17.725Z,791.51
2018-04-14T00:21:22.046Z,791.52
2018-04-14T00:21:26.149Z,791.46
2018-04-14T00:21:30.361Z,791.51
2018-04-14T00:21:34.682Z,791.5
2018-04-14T00:21:38.895Z,791.51
2018-04-14T00:21:43.115Z,791.52
2018-04-14T00:21:47.212Z,791.48
2018-04-14T00:21:51.310Z,791.51
2018-04-14T00:21:55.560Z,791.53
2018-04-14T00:21:59.771Z,791.49
2018-04-14T00:22:03.980Z,791.5
2018-04-14T00:22:08.188Z,791.49
2018-04-14T00:22:12.508Z,791.53
2018-04-14T00:22:16.723Z,791.51
2018-04-14T00:22:20.927Z,791.49
2018-04-14T00:22:25.149Z,791.45
2018-04-14T00:22:29.476Z,791.44
2018-04-14T00:22:33.692Z,791.42
2018-04-14T00:22:37.896Z,791.46
2018-04-14T00:22:42.162Z,791.41
2018-04-14T00:22:46.267Z,791.44
2018-04-14T00:22:50.472Z,791.42
2018-04-14T00:22:54.571Z,791.4
2018-04-14T00:22:58.670Z,791.43
2018-04-14T00:23:02.768Z,791.37
2018-04-14T00:23:06.878Z,791.4
2018-04-14T00:23:10.872Z,791.35
2018-04-14T00:23:15.193Z,791.38
2018-04-14T00:23:19.292Z,791.4
2018-04-14T00:23:23.398Z,791.37
2018-04-14T00:23:27.616Z,791.36
2018-04-14T00:23:31.929Z,791.34
2018-04-14T00:23:36.143Z,791.3
2018-04-14T00:23:40.504Z,791.31
2018-04-14T00:23:44.821Z,791.3
2018-04-14T00:23:48.813Z,791.33
2018-04-14T00:23:53.138Z,791.26
2018-04-14T00:23:57.462Z,791.29
2018-04-14T00:24:01.789Z,791.28
2018-04-14T00:24:06.010Z,791.27
2018-04-14T00:24:10.159Z,791.22
2018-04-14T00:24:14.385Z,791.21
2018-04-14T00:24:18.491Z,791.28
2018-04-14T00:24:22.808Z,791.26
2018-04-14T00:24:26.911Z,791.23
2018-04-14T00:24:31.129Z,791.24
2018-04-14T00:24:35.452Z,791.2
2018-04-14T00:24:39.553Z,791.22
2018-04-14T00:24:43.866Z,791.23
2018-04-14T00:24:47.970Z,791.2
2018-04-14T00:24:52.298Z,791.19
2018-04-14T00:24:56.611Z,791.2
2018-04-14T00:25:00.816Z,791.22
2018-04-14T00:25:05.185Z,791.2
2018-04-14T00:25:09.395Z,791.11
2018-04-14T00:25:13.600Z,791.18
2018-04-14T00:25:17.813Z,791.17
2018-04-14T00:25:22.025Z,791.16
2018-04-14T00:25:26.126Z,791.19
2018-04-14T00:25:30.332Z,791.14
2018-04-14T00:25:34.444Z,791.1
2018-04-14T00:25:38.767Z,791.18
2018-04-14T00:25:43.083Z,791.16
2018-04-14T00:25:47.396Z,791.1
2018-04-14T00:25:51.608Z,791.12
2018-04-14T00:25:55.817Z,791.14
2018-04-14T00:26:00.039Z,791.13
2018-04-14T00:26:04.247Z,791.05
2018-04-14T00:26:08.454Z,791.09
2018-04-14T00:26:12.681Z,791.08
2018-04-14T00:26:16.892Z,791.09
2018-04-14T00:26:21.102Z,791.09
2018-04-14T00:26:25.428Z,791.11
2018-04-14T00:26:29.645Z,791.1
2018-04-14T00:26:33.975Z,791.08
2018-04-14T00:26:38.077Z,791.05
2018-04-14T00:26:42.402Z,791.11
2018-04-14T00:26:46.606Z,791.08
2018-04-14T00:26:50.816Z,791.04
2018-04-14T00:26:55.059Z,791.03
2018-04-14T00:26:59.267Z,791.03
2018-04-14T00:27:03.592Z,791
2018-04-14T00:27:07.589Z,791.01
2018-04-14T00:27:11.798Z,791.06
2018-04-14T00:27:16.119Z,791.06
2018-04-14T00:27:20.330Z,791.04
2018-04-14T00:27:24.544Z,791.03
2018-04-14T00:27:28.751Z,791.04
2018-04-14T00:27:32.851Z,791.05
2018-04-14T00:27:37.180Z,791.03
2018-04-14T00:27:41.284Z,791.03
2018-04-14T00:27:45.503Z,791.04
2018-04-14T00:27:49.616Z,791
2018-04-14T00:27:53.942Z,791
2018-04-14T00:27:58.312Z,791.02
2018-04-14T00:28:02.826Z,790.99
2018-04-14T00:28:07.031Z,791.02
2018-04-14T00:28:11.136Z,791.03
2018-04-14T00:28:15.343Z,791.01
2018-04-14T00:28:19.557Z,791
2018-04-14T00:28:23.549Z,790.98
2018-04-14T00:28:27.769Z,790.98
2018-04-14T00:28:31.877Z,790.98
2018-04-14T00:28:35.978Z,790.97
2018-04-14T00:28:40.305Z,790.99
2018-04-14T00:28:44.625Z,790.96
2018-04-14T00:28:48.735Z,790.97
2018-04-14T00:28:52.964Z,790.99
2018-04-14T00:28:57.172Z,790.96
2018-04-14T00:29:01.385Z,790.98
2018-04-14T00:29:05.480Z,790.94
2018-04-14T00:29:09.691Z,790.97
2018-04-14T00:29:14.012Z,790.9
2018-04-14T00:29:18.331Z,790.92
2018-04-14T00:29:22.538Z,790.92
2018-04-14T00:29:26.790Z,790.91
2018-04-14T00:29:31.003Z,790.92
2018-04-14T00:29:35.215Z,790.95
2018-04-14T00:29:39.436Z,790.91
2018-04-14T00:29:43.532Z,790.9
2018-04-14T00:29:47.871Z,790.91
2018-04-14T00:29:52.182Z,790.88
2018-04-14T00:29:56.394Z,790.9
2018-04-14T00:30:00.495Z,790.9
2018-04-14T00:30:04.713Z,790.91
2018-04-14T00:30:08.924Z,790.88
2018-04-14T00:30:13.032Z,790.89
2018-04-14T00:30:17.242Z,790.88
2018-04-14T00:30:21.447Z,790.84
2018-04-14T00:30:25.655Z,790.87
2018-04-14T00:30:29.972Z,790.83
2018-04-14T00:30:34.293Z,790.87
2018-04-14T00:30:38.623Z,790.82
2018-04-14T00:30:42.833Z,790.84
2018-04-14T00:30:46.937Z,790.88
2018-04-14T00:30:51.262Z,790.82
2018-04-14T00:30:55.365Z,790.87
2018-04-14T00:30:59.709Z,790.84
2018-04-14T00:31:03.810Z,790.86
2018-04-14T00:31:07.803Z,790.85
2018-04-14T00:31:12.019Z,790.83
2018-04-14T00:31:16.340Z,790.83
2018-04-14T00:31:20.555Z,790.84
2018-04-14T00:31:24.658Z,790.83
2018-04-14T00:31:28.660Z,790.84
2018-04-14T00:31:32.976Z,790.78
2018-04-14T00:31:37.076Z,790.82
2018-04-14T00:31:41.293Z,790.85
2018-04-14T00:31:45.393Z,790.85
2018-04-14T00:31:49.384Z,790.84
2018-04-14T00:31:53.494Z,790.86
2018-04-14T00:31:57.699Z,790.87
2018-04-14T00:32:02.023Z,790.81
2018-04-14T00:32:06.131Z,790.82
2018-04-14T00:32:10.345Z,790.81
2018-04-14T00:32:14.658Z,790.86
2018-04-14T00:32:18.764Z,790.81
2018-04-14T00:32:23.078Z,790.84
2018-04-14T00:32:27.392Z,790.86
2018-04-14T00:32:31.598Z,790.86
2018-04-14T00:32:35.804Z,790.78
2018-04-14T00:32:40.131Z,790.8
2018-04-14T00:32:44.463Z,790.83
2018-04-14T00:32:48.563Z,790.87
2018-04-14T00:32:52.664Z,790.84
2018-04-14T00:32:56.765Z,790.81
2018-04-14T00:33:00.875Z,790.81
2018-04-14T00:33:05.086Z,790.79
2018-04-14T00:33:09.297Z,790.86
2018-04-14T00:33:13.615Z,790.83
2018-04-14T00:33:17.826Z,790.83
2018-04-14T00:33:22.212Z,790.85
2018-04-14T00:33:26.423Z,790.84
2018-04-14T00:33:30.649Z,790.8
2018-04-14T00:33:34.761Z,790.83
2018-04-14T00:33:38.968Z,790.82
2018-04-14T00:33:43.292Z,790.84
2018-04-14T00:33:47.391Z,790.83
2018-04-14T00:33:51.714Z,790.79
2018-04-14T00:33:55.918Z,790.79
2018-04-14T00:34:00.130Z,790.81
2018-04-14T00:34:04.447Z,790.79
2018-04-14T00:34:08.443Z,790.8
2018-04-14T00:34:12.769Z,790.81
2018-04-14T00:34:16.872Z,790.82
2018-04-14T00:34:21.103Z,790.83
2018-04-14T00:34:25.319Z,790.79
2018-04-14T00:34:29.430Z,790.81
2018-04-14T00:34:33.642Z,790.78
2018-04-14T00:34:37.846Z,790.81
2018-04-14T00:34:42.063Z,790.84
2018-04-14T00:34:46.383Z,790.81
2018-04-14T00:34:50.482Z,790.81
2018-04-14T00:34:54.691Z,790.81
2018-04-14T00:34:59.010Z,790.78
2018-04-14T00:35:03.218Z,790.79
2018-04-14T00:35:07.425Z,790.79
2018-04-14T00:35:11.520Z,790.8
2018-04-14T00:35:15.730Z,790.76
2018-04-14T00:35:20.043Z,790.77
2018-04-14T00:35:24.252Z,790.81
2018-04-14T00:35:28.247Z,790.8
2018-04-14T00:35:32.576Z,790.81
2018-04-14T00:35:36.675Z,790.83
2018-04-14T00:35:40.777Z,790.82
2018-04-14T00:35:45.094Z,790.81
2018-04-14T00:35:49.311Z,790.81
2018-04-14T00:35:53.643Z,790.8
2018-04-14T00:35:57.959Z,790.83
2018-04-14T00:36:02.061Z,790.83
2018-04-14T00:36:06.380Z,790.85
2018-04-14T00:36:10.591Z,790.81
2018-04-14T00:36:14.690Z,790.82
2018-04-14T00:36:19.010Z,790.83
2018-04-14T00:36:23.217Z,790.8
2018-04-14T00:36:27.537Z,790.78
2018-04-14T00:36:31.754Z,790.81
2018-04-14T00:36:36.079Z,790.77
2018-04-14T00:36:40.287Z,790.76
2018-04-14T00:36:44.499Z,790.84
2018-04-14T00:36:48.609Z,790.87
2018-04-14T00:36:52.819Z,790.84
2018-04-14T00:36:57.135Z,790.83
2018-04-14T00:37:01.257Z,790.82
2018-04-14T00:37:05.464Z,790.86
2018-04-14T00:37:09.677Z,790.81
2018-04-14T00:37:13.987Z,790.78
2018-04-14T00:37:18.201Z,790.81
2018-04-14T00:37:22.422Z,790.79
2018-04-14T00:37:26.521Z,790.84
2018-04-14T00:37:30.621Z,790.85
2018-04-14T00:37:34.833Z,790.84
2018-04-14T00:37:39.158Z,790.82
2018-04-14T00:37:43.371Z,790.83
2018-04-14T00:37:47.588Z,790.85
2018-04-14T00:37:51.899Z,790.87
2018-04-14T00:37:56.006Z,790.84
2018-04-14T00:38:00.220Z,790.8
2018-04-14T00:38:04.324Z,790.8
2018-04-14T00:38:08.538Z,790.8
2018-04-14T00:38:12.746Z,790.85
2018-04-14T00:38:17.059Z,790.83
2018-04-14T00:38:21.379Z,790.82
2018-04-14T00:38:25.700Z,790.82
2018-04-14T00:38:29.922Z,790.83
2018-04-14T00:38:34.135Z,790.83
2018-04-14T00:38:38.344Z,790.82
2018-04-14T00:38:42.555Z,790.82
2018-04-14T00:38:46.868Z,790.81
2018-04-14T00:38:51.198Z,790.84
2018-04-14T00:38:55.411Z,790.82
2018-04-14T00:38:59.563Z,790.82
2018-04-14T00:39:03.890Z,790.85
2018-04-14T00:39:08.104Z,790.77
2018-04-14T00:39:12.202Z,790.76
2018-04-14T00:39:16.413Z,790.75
2018-04-14T00:39:20.522Z,790.81
2018-04-14T00:39:24.739Z,790.82
2018-04-14T00:39:28.969Z,790.81
2018-04-14T00:39:33.075Z,790.79
2018-04-14T00:39:37.224Z,790.81
2018-04-14T00:39:41.867Z,790.85
2018-04-14T00:39:46.593Z,790.83
2018-04-14T00:39:50.586Z,790.79
2018-04-14T00:39:54.792Z,790.81
2018-04-14T00:39:58.888Z,790.82
2018-04-14T00:40:03.098Z,790.82
2018-04-14T00:40:07.303Z,790.81
2018-04-14T00:40:11.643Z,790.79
2018-04-14T00:40:15.963Z,790.79
2018-04-14T00:40:19.956Z,790.83
2018-04-14T00:40:24.173Z,790.8
2018-04-14T00:40:28.486Z,790.78
2018-04-14T00:40:32.697Z,790.78
2018-04-14T00:40:36.804Z,790.78
2018-04-14T00:40:40.907Z,790.78
2018-04-14T00:40:45.234Z,790.77
2018-04-14T00:40:49.448Z,790.79
2018-04-14T00:40:53.552Z,790.78
2018-04-14T00:40:57.757Z,790.81
2018-04-14T00:41:01.967Z,790.74
2018-04-14T00:41:06.082Z,790.74
2018-04-14T00:41:10.186Z,790.75
2018-04-14T00:41:14.547Z,790.74
2018-04-14T00:41:18.871Z,790.76
2018-04-14T00:41:23.190Z,790.77
2018-04-14T00:41:27.510Z,790.75
2018-04-14T00:41:31.613Z,790.77
2018-04-14T00:41:35.824Z,790.77
2018-04-14T00:41:40.256Z,790.76
2018-04-14T00:41:44.571Z,790.79
2018-04-14T00:41:48.781Z,790.75
2018-04-14T00:41:53.109Z,790.75
2018-04-14T00:41:57.424Z,790.78
2018-04-14T00:42:01.631Z,790.75
2018-04-14T00:42:05.630Z,790.76
2018-04-14T00:42:09.624Z,790.77
2018-04-14T00:42:13.735Z,790.76
2018-04-14T00:42:17.839Z,790.76
2018-04-14T00:42:21.938Z,790.75
2018-04-14T00:42:26.250Z,790.76
2018-04-14T00:42:30.351Z,790.78
2018-04-14T00:42:34.665Z,790.76
2018-04-14T00:42:38.887Z,790.73
2018-04-14T00:42:43.092Z,790.74
2018-04-14T00:42:47.200Z,790.73
2018-04-14T00:42:51.407Z,790.72
2018-04-14T00:42:55.506Z,790.78
2018-04-14T00:42:59.820Z,790.72
2018-04-14T00:43:04.026Z,790.72
2018-04-14T00:43:08.018Z,790.73
2018-04-14T00:43:12.225Z,790.73
2018-04-14T00:43:16.339Z,790.7
2018-04-14T00:43:20.651Z,790.74
2018-04-14T00:43:24.873Z,790.76
2018-04-14T00:43:28.971Z,790.76
2018-04-14T00:43:33.175Z,790.74
2018-04-14T00:43:37.388Z,790.72
2018-04-14T00:43:41.597Z,790.74
2018-04-14T00:43:45.802Z,790.74
2018-04-14T00:43:49.906Z,790.75
2018-04-14T00:43:54.227Z,790.72
2018-04-14T00:43:58.224Z,790.73
2018-04-14T00:44:02.218Z,790.76
2018-04-14T00:44:06.428Z,790.76
2018-04-14T00:44:10.426Z,790.76
2018-04-14T00:44:14.631Z,790.71
2018-04-14T00:44:18.837Z,790.72
2018-04-14T00:44:23.151Z,790.7
2018-04-14T00:44:27.149Z,790.7
2018-04-14T00:44:31.247Z,790.7
2018-04-14T00:44:35.346Z,790.7
2018-04-14T00:44:39.554Z,790.73
2018-04-14T00:44:43.656Z,790.68
2018-04-14T00:44:47.758Z,790.69
2018-04-14T00:44:51.973Z,790.7
2018-04-14T00:44:56.287Z,790.67
2018-04-14T00:45:00.387Z,790.68
2018-04-14T00:45:04.213Z,790.67
2018-04-14T00:45:08.422Z,790.66
2018-04-14T00:45:12.536Z,790.66
2018-04-14T00:45:16.752Z,790.7
2018-04-14T00:45:20.965Z,790.73
2018-04-14T00:45:25.280Z,790.7
2018-04-14T00:45:29.271Z,790.71
2018-04-14T00:45:33.374Z,790.73
2018-04-14T00:45:37.482Z,790.7
2018-04-14T00:45:41.802Z,790.73
2018-04-14T00:45:46.115Z,790.7
2018-04-14T00:45:50.215Z,790.72
2018-04-14T00:45:54.434Z,790.7
2018-04-14T00:45:58.651Z,790.68
2018-04-14T00:46:02.759Z,790.7
2018-04-14T00:46:06.968Z,790.68
2018-04-14T00:46:11.068Z,790.69
2018-04-14T00:46:15.389Z,790.72
2018-04-14T00:46:19.490Z,790.7
2018-04-14T00:46:23.804Z,790.7
2018-04-14T00:46:27.905Z,790.67
2018-04-14T00:46:32.112Z,790.7
2018-04-14T00:46:36.442Z,790.68
2018-04-14T00:46:40.754Z,790.66
2018-04-14T00:46:44.746Z,790.68
2018-04-14T00:46:48.962Z,790.68
2018-04-14T00:46:53.057Z,790.72
2018-04-14T00:46:57.371Z,790.67
2018-04-14T00:47:01.583Z,790.66
2018-04-14T00:47:05.582Z,790.67
2018-04-14T00:47:09.680Z,790.63
2018-04-14T00:47:13.993Z,790.66
2018-04-14T00:47:18.207Z,790.67
2018-04-14T00:47:22.419Z,790.68
2018-04-14T00:47:26.630Z,790.63
2018-04-14T00:47:30.959Z,790.6
2018-04-14T00:47:35.279Z,790.67
2018-04-14T00:47:39.499Z,790.65
2018-04-14T00:47:43.599Z,790.64
2018-04-14T00:47:47.705Z,790.68
2018-04-14T00:47:51.920Z,790.65
2018-04-14T00:47:56.127Z,790.65
2018-04-14T00:48:00.446Z,790.66
2018-04-14T00:48:04.653Z,790.64
2018-04-14T00:48:08.977Z,790.62
2018-04-14T00:48:13.083Z,790.66
2018-04-14T00:48:17.294Z,790.68
2018-04-14T00:48:21.619Z,790.65
2018-04-14T00:48:25.939Z,790.67
2018-04-14T00:48:30.151Z,790.62
2018-04-14T00:48:34.466Z,790.65
2018-04-14T00:48:38.679Z,790.66
2018-04-14T00:48:42.985Z,790.66
2018-04-14T00:48:47.329Z,790.65
2018-04-14T00:48:51.530Z,790.64
2018-04-14T00:48:55.862Z,790.63
2018-04-14T00:49:00.068Z,790.65
2018-04-14T00:49:04.178Z,790.66
2018-04-14T00:49:08.494Z,790.63
2018-04-14T00:49:12.701Z,790.65
2018-04-14T00:49:16.585Z,790.63
2018-04-14T00:49:20.905Z,790.63
2018-04-14T00:49:25.228Z,790.65
2018-04-14T00:49:29.328Z,790.61
2018-04-14T00:49:33.644Z,790.61
2018-04-14T00:49:37.851Z,790.6
2018-04-14T00:49:41.741Z,790.54
2018-04-14T00:49:46.068Z,790.58
2018-04-14T00:49:50.273Z,790.64
2018-04-14T00:49:54.590Z,790.63
2018-04-14T00:49:58.799Z,790.62
2018-04-14T00:50:03.136Z,790.55
2018-04-14T00:50:07.129Z,790.6
2018-04-14T00:50:11.127Z,790.63
2018-04-14T00:50:15.233Z,790.66
2018-04-14T00:50:19.440Z,790.62
2018-04-14T00:50:23.649Z,790.62
2018-04-14T00:50:27.865Z,790.6
2018-04-14T00:50:32.179Z,790.62
2018-04-14T00:50:36.388Z,790.61
2018-04-14T00:50:40.380Z,790.64
2018-04-14T00:50:44.484Z,790.59
2018-04-14T00:50:48.583Z,790.63
2018-04-14T00:50:52.687Z,790.6
2018-04-14T00:50:57.001Z,790.62
2018-04-14T00:51:01.224Z,790.61
2018-04-14T00:51:05.330Z,790.56
2018-04-14T00:51:09.652Z,790.61
2018-04-14T00:51:13.861Z,790.62
2018-04-14T00:51:18.184Z,790.59
2018-04-14T00:51:22.508Z,790.62
2018-04-14T00:51:26.626Z,790.63
2018-04-14T00:51:30.848Z,790.6
2018-04-14T00:51:34.952Z,790.57
2018-04-14T00:51:39.052Z,790.59
2018-04-14T00:51:43.255Z,790.58
2018-04-14T00:51:47.463Z,790.59
2018-04-14T00:51:51.788Z,790.59
2018-04-14T00:51:56.106Z,790.58
2018-04-14T00:52:00.326Z,790.6
2018-04-14T00:52:04.473Z,790.58
2018-04-14T00:52:08.684Z,790.58
2018-04-14T00:52:12.889Z,790.61
2018-04-14T00:52:17.097Z,790.6
2018-04-14T00:52:21.310Z,790.55
2018-04-14T00:52:25.522Z,790.6
2018-04-14T00:52:29.833Z,790.59
2018-04-14T00:52:34.145Z,790.59
2018-04-14T00:52:38.359Z,790.58
2018-04-14T00:52:42.613Z,790.57
2018-04-14T00:52:46.945Z,790.54
2018-04-14T00:52:51.049Z,790.57
2018-04-14T00:52:55.152Z,790.58
2018-04-14T00:52:59.471Z,790.53
2018-04-14T00:53:03.468Z,790.54
2018-04-14T00:53:07.568Z,790.58
2018-04-14T00:53:11.888Z,790.56
2018-04-14T00:53:16.100Z,790.56
2018-04-14T00:53:20.410Z,790.58
2018-04-14T00:53:24.512Z,790.58
2018-04-14T00:53:28.723Z,790.55
2018-04-14T00:53:32.823Z,790.54
2018-04-14T00:53:37.141Z,790.56
2018-04-14T00:53:41.350Z,790.53